sensor_id;sensor_type;location;lat;lon;timestamp;temperature;humidity
19888;DHT22;10106;51.332;12.336;2022-08-19T00:01:28;20.10;99.90
19888;DHT22;10106;51.332;12.336;2022-08-19T00:03:58;20.00;99.90
19888;DHT22;10106;51.332;12.336;2022-08-19T00:06:25;20.00;99.90
19888;DHT22;10106;51.332;12.336;2022-08-19T00:08:51;20.00;99.90
19888;DHT22;10106;51.332;12.336;2022-08-19T00:11:17;20.00;99.90
19888;DHT22;10106;51.332;12.336;2022-08-19T00:13:43;20.00;99.90
19888;DHT22;10106;51.332;12.336;2022-08-19T00:16:11;20.00;99.90
19888;DHT22;10106;51.332;12.336;2022-08-19T00:18:36;20.00;99.90
19888;DHT22;10106;51.332;12.336;2022-08-19T00:21:04;20.00;99.90
19888;DHT22;10106;51.332;12.336;2022-08-19T00:23:34;20.00;99.90
19888;DHT22;10106;51.332;12.336;2022-08-19T00:26:03;20.10;99.90
19888;DHT22;10106;51.332;12.336;2022-08-19T00:28:29;20.10;99.90
19888;DHT22;10106;51.332;12.336;2022-08-19T00:30:55;20.10;99.90
19888;DHT22;10106;51.332;12.336;2022-08-19T00:33:21;20.10;99.90
19888;DHT22;10106;51.332;12.336;2022-08-19T00:35:47;20.10;99.90
19888;DHT22;10106;51.332;12.336;2022-08-19T00:38:13;20.10;99.90
19888;DHT22;10106;51.332;12.336;2022-08-19T00:40:39;20.20;99.90
19888;DHT22;10106;51.332;12.336;2022-08-19T00:43:10;20.20;99.90
19888;DHT22;10106;51.332;12.336;2022-08-19T00:45:36;20.20;99.90
19888;DHT22;10106;51.332;12.336;2022-08-19T00:48:02;20.10;99.90
19888;DHT22;10106;51.332;12.336;2022-08-19T00:50:30;20.10;99.90
19888;DHT22;10106;51.332;12.336;2022-08-19T00:52:56;20.10;99.90
19888;DHT22;10106;51.332;12.336;2022-08-19T00:55:25;20.10;99.90
19888;DHT22;10106;51.332;12.336;2022-08-19T00:57:57;20.10;99.90
19888;DHT22;10106;51.332;12.336;2022-08-19T01:00:25;20.00;99.90
19888;DHT22;10106;51.332;12.336;2022-08-19T01:02:52;20.00;99.90
19888;DHT22;10106;51.332;12.336;2022-08-19T01:05:25;20.00;99.90
19888;DHT22;10106;51.332;12.336;2022-08-19T01:07:53;20.00;99.90
19888;DHT22;10106;51.332;12.336;2022-08-19T01:10:23;20.00;99.90
19888;DHT22;10106;51.332;12.336;2022-08-19T01:12:51;20.00;99.90
19888;DHT22;10106;51.332;12.336;2022-08-19T01:15:21;20.00;99.90
19888;DHT22;10106;51.332;12.336;2022-08-19T01:17:48;20.00;99.90
19888;DHT22;10106;51.332;12.336;2022-08-19T01:20:19;20.00;99.90
19888;DHT22;10106;51.332;12.336;2022-08-19T01:22:48;20.00;99.90
19888;DHT22;10106;51.332;12.336;2022-08-19T01:25:18;19.90;99.90
19888;DHT22;10106;51.332;12.336;2022-08-19T01:27:48;19.90;99.90
19888;DHT22;10106;51.332;12.336;2022-08-19T01:30:21;19.80;99.90
19888;DHT22;10106;51.332;12.336;2022-08-19T01:32:48;19.80;99.90
19888;DHT22;10106;51.332;12.336;2022-08-19T01:35:14;19.80;99.90
19888;DHT22;10106;51.332;12.336;2022-08-19T01:37:49;19.80;99.90
19888;DHT22;10106;51.332;12.336;2022-08-19T01:40:16;19.70;99.90
19888;DHT22;10106;51.332;12.336;2022-08-19T01:42:42;19.70;99.90
19888;DHT22;10106;51.332;12.336;2022-08-19T01:45:08;19.70;99.90
19888;DHT22;10106;51.332;12.336;2022-08-19T01:47:37;19.70;99.90
19888;DHT22;10106;51.332;12.336;2022-08-19T01:50:06;19.70;99.90
19888;DHT22;10106;51.332;12.336;2022-08-19T01:52:35;19.70;99.90
19888;DHT22;10106;51.332;12.336;2022-08-19T01:55:01;19.70;99.90
19888;DHT22;10106;51.332;12.336;2022-08-19T01:57:27;19.70;99.90
19888;DHT22;10106;51.332;12.336;2022-08-19T01:59:52;19.70;99.90
19888;DHT22;10106;51.332;12.336;2022-08-19T02:02:19;19.70;99.90
19888;DHT22;10106;51.332;12.336;2022-08-19T02:04:44;19.70;99.90
19888;DHT22;10106;51.332;12.336;2022-08-19T02:07:11;19.70;99.90
19888;DHT22;10106;51.332;12.336;2022-08-19T02:09:37;19.70;99.90
19888;DHT22;10106;51.332;12.336;2022-08-19T02:12:04;19.70;99.90
19888;DHT22;10106;51.332;12.336;2022-08-19T02:14:29;19.70;99.90
19888;DHT22;10106;51.332;12.336;2022-08-19T02:16:55;19.70;99.90
19888;DHT22;10106;51.332;12.336;2022-08-19T02:19:21;19.70;99.90
19888;DHT22;10106;51.332;12.336;2022-08-19T02:21:47;19.70;99.90
19888;DHT22;10106;51.332;12.336;2022-08-19T02:24:13;19.80;99.90
19888;DHT22;10106;51.332;12.336;2022-08-19T02:26:39;19.80;99.90
19888;DHT22;10106;51.332;12.336;2022-08-19T02:29:05;19.80;99.90
19888;DHT22;10106;51.332;12.336;2022-08-19T02:31:30;19.80;99.90
19888;DHT22;10106;51.332;12.336;2022-08-19T02:33:56;19.80;99.90
19888;DHT22;10106;51.332;12.336;2022-08-19T02:36:23;19.80;99.90
19888;DHT22;10106;51.332;12.336;2022-08-19T02:38:49;19.80;99.90
19888;DHT22;10106;51.332;12.336;2022-08-19T02:41:20;19.80;99.90
19888;DHT22;10106;51.332;12.336;2022-08-19T02:43:47;19.80;99.90
19888;DHT22;10106;51.332;12.336;2022-08-19T02:46:19;19.80;99.90
19888;DHT22;10106;51.332;12.336;2022-08-19T02:48:51;19.80;99.90
19888;DHT22;10106;51.332;12.336;2022-08-19T02:51:19;19.80;99.90
19888;DHT22;10106;51.332;12.336;2022-08-19T02:53:45;19.80;99.90
19888;DHT22;10106;51.332;12.336;2022-08-19T02:56:11;19.80;99.90
19888;DHT22;10106;51.332;12.336;2022-08-19T02:58:37;19.80;99.90
19888;DHT22;10106;51.332;12.336;2022-08-19T03:01:02;19.80;99.90
19888;DHT22;10106;51.332;12.336;2022-08-19T03:03:28;19.80;99.90
19888;DHT22;10106;51.332;12.336;2022-08-19T03:06:10;19.80;99.90
19888;DHT22;10106;51.332;12.336;2022-08-19T03:08:37;19.90;99.90
19888;DHT22;10106;51.332;12.336;2022-08-19T03:11:03;19.90;99.90
19888;DHT22;10106;51.332;12.336;2022-08-19T03:13:29;19.90;99.90
19888;DHT22;10106;51.332;12.336;2022-08-19T03:15:55;19.90;99.90
19888;DHT22;10106;51.332;12.336;2022-08-19T03:18:21;19.90;99.90
19888;DHT22;10106;51.332;12.336;2022-08-19T03:20:51;19.90;99.90
19888;DHT22;10106;51.332;12.336;2022-08-19T03:23:20;19.90;99.90
19888;DHT22;10106;51.332;12.336;2022-08-19T03:25:48;19.90;99.90
19888;DHT22;10106;51.332;12.336;2022-08-19T03:28:15;19.90;99.90
19888;DHT22;10106;51.332;12.336;2022-08-19T03:30:42;19.90;99.90
19888;DHT22;10106;51.332;12.336;2022-08-19T03:33:10;20.00;99.90
19888;DHT22;10106;51.332;12.336;2022-08-19T03:35:37;20.00;99.90
19888;DHT22;10106;51.332;12.336;2022-08-19T03:38:06;20.10;99.90
19888;DHT22;10106;51.332;12.336;2022-08-19T03:40:32;20.10;99.90
19888;DHT22;10106;51.332;12.336;2022-08-19T03:43:00;20.10;99.90
19888;DHT22;10106;51.332;12.336;2022-08-19T03:45:26;20.10;99.90
19888;DHT22;10106;51.332;12.336;2022-08-19T03:47:52;20.10;99.90
19888;DHT22;10106;51.332;12.336;2022-08-19T03:50:18;20.20;99.90
19888;DHT22;10106;51.332;12.336;2022-08-19T03:52:48;20.20;99.90
19888;DHT22;10106;51.332;12.336;2022-08-19T03:55:15;20.10;99.90
19888;DHT22;10106;51.332;12.336;2022-08-19T03:57:41;20.10;99.90
19888;DHT22;10106;51.332;12.336;2022-08-19T04:00:07;20.10;99.90
19888;DHT22;10106;51.332;12.336;2022-08-19T04:02:33;20.10;99.90
19888;DHT22;10106;51.332;12.336;2022-08-19T04:04:58;20.10;99.90
19888;DHT22;10106;51.332;12.336;2022-08-19T04:07:24;20.10;99.90
19888;DHT22;10106;51.332;12.336;2022-08-19T04:09:50;20.10;99.90
19888;DHT22;10106;51.332;12.336;2022-08-19T04:12:17;20.10;99.90
19888;DHT22;10106;51.332;12.336;2022-08-19T04:14:42;20.10;99.90
19888;DHT22;10106;51.332;12.336;2022-08-19T04:17:08;20.10;99.90
19888;DHT22;10106;51.332;12.336;2022-08-19T04:19:35;20.10;99.90
19888;DHT22;10106;51.332;12.336;2022-08-19T04:22:02;20.10;99.90
19888;DHT22;10106;51.332;12.336;2022-08-19T04:24:28;20.10;99.90
19888;DHT22;10106;51.332;12.336;2022-08-19T04:26:54;20.10;99.90
19888;DHT22;10106;51.332;12.336;2022-08-19T04:29:29;20.10;99.90
19888;DHT22;10106;51.332;12.336;2022-08-19T04:31:56;20.10;99.90
19888;DHT22;10106;51.332;12.336;2022-08-19T04:34:24;20.10;99.90
19888;DHT22;10106;51.332;12.336;2022-08-19T04:36:52;20.10;99.90
19888;DHT22;10106;51.332;12.336;2022-08-19T04:39:22;20.10;99.90
19888;DHT22;10106;51.332;12.336;2022-08-19T04:41:48;20.00;99.90
19888;DHT22;10106;51.332;12.336;2022-08-19T04:44:35;20.10;99.90
19888;DHT22;10106;51.332;12.336;2022-08-19T04:47:01;20.10;99.90
19888;DHT22;10106;51.332;12.336;2022-08-19T04:49:28;20.10;99.90
19888;DHT22;10106;51.332;12.336;2022-08-19T04:51:55;20.10;99.90
19888;DHT22;10106;51.332;12.336;2022-08-19T04:54:24;20.20;99.90
19888;DHT22;10106;51.332;12.336;2022-08-19T04:56:51;20.30;99.90
19888;DHT22;10106;51.332;12.336;2022-08-19T04:59:19;20.30;99.90
19888;DHT22;10106;51.332;12.336;2022-08-19T05:06:56;20.30;99.90
19888;DHT22;10106;51.332;12.336;2022-08-19T05:09:21;20.40;99.90
19888;DHT22;10106;51.332;12.336;2022-08-19T05:11:47;20.40;99.90
19888;DHT22;10106;51.332;12.336;2022-08-19T05:14:16;20.40;99.90
19888;DHT22;10106;51.332;12.336;2022-08-19T05:16:41;20.40;99.90
19888;DHT22;10106;51.332;12.336;2022-08-19T05:19:07;20.40;99.90
19888;DHT22;10106;51.332;12.336;2022-08-19T05:21:52;20.40;99.90
19888;DHT22;10106;51.332;12.336;2022-08-19T05:24:37;20.30;99.90
19888;DHT22;10106;51.332;12.336;2022-08-19T05:27:03;20.30;99.90
19888;DHT22;10106;51.332;12.336;2022-08-19T05:29:31;20.30;99.90
19888;DHT22;10106;51.332;12.336;2022-08-19T05:32:00;20.20;99.90
19888;DHT22;10106;51.332;12.336;2022-08-19T05:34:26;20.20;99.90
19888;DHT22;10106;51.332;12.336;2022-08-19T05:36:59;20.20;99.90
19888;DHT22;10106;51.332;12.336;2022-08-19T05:39:29;20.30;99.90
19888;DHT22;10106;51.332;12.336;2022-08-19T05:42:00;20.20;99.90
19888;DHT22;10106;51.332;12.336;2022-08-19T05:44:29;20.20;99.90
19888;DHT22;10106;51.332;12.336;2022-08-19T05:47:00;20.20;99.90
19888;DHT22;10106;51.332;12.336;2022-08-19T05:49:27;20.30;99.90
19888;DHT22;10106;51.332;12.336;2022-08-19T05:51:53;20.30;99.90
19888;DHT22;10106;51.332;12.336;2022-08-19T05:54:20;20.30;99.90
19888;DHT22;10106;51.332;12.336;2022-08-19T05:56:46;20.40;99.90
19888;DHT22;10106;51.332;12.336;2022-08-19T05:59:14;20.40;99.90
19888;DHT22;10106;51.332;12.336;2022-08-19T06:01:42;20.40;99.90
19888;DHT22;10106;51.332;12.336;2022-08-19T06:04:08;20.40;99.90
19888;DHT22;10106;51.332;12.336;2022-08-19T06:06:35;20.40;99.90
19888;DHT22;10106;51.332;12.336;2022-08-19T06:09:07;20.40;99.90
19888;DHT22;10106;51.332;12.336;2022-08-19T06:11:43;20.40;99.90
19888;DHT22;10106;51.332;12.336;2022-08-19T06:14:12;20.40;99.90
19888;DHT22;10106;51.332;12.336;2022-08-19T06:16:40;20.40;99.90
19888;DHT22;10106;51.332;12.336;2022-08-19T06:19:12;20.40;99.90
19888;DHT22;10106;51.332;12.336;2022-08-19T06:21:40;20.40;99.90
19888;DHT22;10106;51.332;12.336;2022-08-19T06:24:09;20.40;99.90
19888;DHT22;10106;51.332;12.336;2022-08-19T06:26:36;20.40;99.90
19888;DHT22;10106;51.332;12.336;2022-08-19T06:29:04;20.40;99.90
19888;DHT22;10106;51.332;12.336;2022-08-19T06:31:33;20.50;99.90
19888;DHT22;10106;51.332;12.336;2022-08-19T06:34:00;20.40;99.90
19888;DHT22;10106;51.332;12.336;2022-08-19T06:36:34;20.50;99.90
19888;DHT22;10106;51.332;12.336;2022-08-19T06:39:24;20.50;99.90
19888;DHT22;10106;51.332;12.336;2022-08-19T06:41:52;20.60;99.90
19888;DHT22;10106;51.332;12.336;2022-08-19T06:44:19;20.60;99.90
19888;DHT22;10106;51.332;12.336;2022-08-19T06:46:45;20.50;99.90
19888;DHT22;10106;51.332;12.336;2022-08-19T06:49:11;20.50;99.90
19888;DHT22;10106;51.332;12.336;2022-08-19T06:51:44;20.40;99.90
19888;DHT22;10106;51.332;12.336;2022-08-19T06:54:10;20.40;99.90
19888;DHT22;10106;51.332;12.336;2022-08-19T06:56:37;20.40;99.90
19888;DHT22;10106;51.332;12.336;2022-08-19T06:59:10;20.40;99.90
19888;DHT22;10106;51.332;12.336;2022-08-19T07:01:52;20.40;99.90
19888;DHT22;10106;51.332;12.336;2022-08-19T07:04:20;20.40;99.90
19888;DHT22;10106;51.332;12.336;2022-08-19T07:06:48;20.40;99.90
19888;DHT22;10106;51.332;12.336;2022-08-19T07:09:17;20.30;99.90
19888;DHT22;10106;51.332;12.336;2022-08-19T07:11:47;20.20;99.90
19888;DHT22;10106;51.332;12.336;2022-08-19T07:14:15;20.30;99.90
19888;DHT22;10106;51.332;12.336;2022-08-19T07:16:43;20.20;99.90
19888;DHT22;10106;51.332;12.336;2022-08-19T07:19:11;20.20;99.90
19888;DHT22;10106;51.332;12.336;2022-08-19T07:21:36;20.30;99.90
19888;DHT22;10106;51.332;12.336;2022-08-19T07:24:03;20.20;99.90
19888;DHT22;10106;51.332;12.336;2022-08-19T07:26:31;20.20;99.90
19888;DHT22;10106;51.332;12.336;2022-08-19T07:28:58;20.20;99.90
19888;DHT22;10106;51.332;12.336;2022-08-19T07:31:27;20.30;99.90
19888;DHT22;10106;51.332;12.336;2022-08-19T07:33:54;20.20;99.90
19888;DHT22;10106;51.332;12.336;2022-08-19T07:36:23;20.30;99.90
19888;DHT22;10106;51.332;12.336;2022-08-19T07:38:51;20.30;99.90
19888;DHT22;10106;51.332;12.336;2022-08-19T07:41:20;20.30;99.90
19888;DHT22;10106;51.332;12.336;2022-08-19T07:43:47;20.40;99.90
19888;DHT22;10106;51.332;12.336;2022-08-19T07:46:13;20.40;99.90
19888;DHT22;10106;51.332;12.336;2022-08-19T07:48:42;20.40;99.90
19888;DHT22;10106;51.332;12.336;2022-08-19T07:51:09;20.50;99.90
19888;DHT22;10106;51.332;12.336;2022-08-19T07:53:36;20.50;99.90
19888;DHT22;10106;51.332;12.336;2022-08-19T07:56:03;20.40;99.90
19888;DHT22;10106;51.332;12.336;2022-08-19T07:58:32;20.40;99.90
19888;DHT22;10106;51.332;12.336;2022-08-19T08:00:59;20.40;99.90
19888;DHT22;10106;51.332;12.336;2022-08-19T08:03:25;20.40;99.90
19888;DHT22;10106;51.332;12.336;2022-08-19T08:06:12;20.40;99.90
19888;DHT22;10106;51.332;12.336;2022-08-19T08:08:57;20.50;99.90
19888;DHT22;10106;51.332;12.336;2022-08-19T08:11:53;20.60;99.90
19888;DHT22;10106;51.332;12.336;2022-08-19T08:14:33;20.60;99.90
19888;DHT22;10106;51.332;12.336;2022-08-19T08:17:00;20.70;99.90
19888;DHT22;10106;51.332;12.336;2022-08-19T08:19:26;20.80;99.90
19888;DHT22;10106;51.332;12.336;2022-08-19T08:21:57;20.80;99.90
19888;DHT22;10106;51.332;12.336;2022-08-19T08:24:26;20.80;99.90
19888;DHT22;10106;51.332;12.336;2022-08-19T08:26:52;20.80;99.90
19888;DHT22;10106;51.332;12.336;2022-08-19T08:29:17;20.80;99.90
19888;DHT22;10106;51.332;12.336;2022-08-19T08:31:45;20.80;99.90
19888;DHT22;10106;51.332;12.336;2022-08-19T08:34:12;20.70;99.90
19888;DHT22;10106;51.332;12.336;2022-08-19T08:36:41;20.60;99.90
19888;DHT22;10106;51.332;12.336;2022-08-19T08:39:13;20.50;99.90
19888;DHT22;10106;51.332;12.336;2022-08-19T08:44:53;20.40;99.90
19888;DHT22;10106;51.332;12.336;2022-08-19T08:47:25;20.40;99.90
19888;DHT22;10106;51.332;12.336;2022-08-19T08:50:03;20.50;99.90
19888;DHT22;10106;51.332;12.336;2022-08-19T08:52:43;20.60;99.90
19888;DHT22;10106;51.332;12.336;2022-08-19T08:55:17;20.60;99.90
19888;DHT22;10106;51.332;12.336;2022-08-19T08:57:53;20.70;99.90
19888;DHT22;10106;51.332;12.336;2022-08-19T09:00:27;20.70;99.90
19888;DHT22;10106;51.332;12.336;2022-08-19T09:02:55;20.80;99.90
19888;DHT22;10106;51.332;12.336;2022-08-19T09:05:23;20.80;99.90
19888;DHT22;10106;51.332;12.336;2022-08-19T09:08:08;20.80;99.90
19888;DHT22;10106;51.332;12.336;2022-08-19T09:10:43;20.80;99.90
19888;DHT22;10106;51.332;12.336;2022-08-19T09:16:18;20.80;99.90
19888;DHT22;10106;51.332;12.336;2022-08-19T09:18:51;20.80;99.90
19888;DHT22;10106;51.332;12.336;2022-08-19T09:21:22;21.00;99.90
19888;DHT22;10106;51.332;12.336;2022-08-19T09:23:48;21.20;99.90
19888;DHT22;10106;51.332;12.336;2022-08-19T09:26:19;21.30;99.90
19888;DHT22;10106;51.332;12.336;2022-08-19T09:28:48;21.40;99.90
19888;DHT22;10106;51.332;12.336;2022-08-19T09:31:23;21.50;99.90
19888;DHT22;10106;51.332;12.336;2022-08-19T09:33:51;21.50;99.90
19888;DHT22;10106;51.332;12.336;2022-08-19T09:36:20;21.60;99.90
19888;DHT22;10106;51.332;12.336;2022-08-19T09:38:52;21.40;99.90
19888;DHT22;10106;51.332;12.336;2022-08-19T09:41:21;21.40;99.90
19888;DHT22;10106;51.332;12.336;2022-08-19T09:43:50;21.40;99.90
19888;DHT22;10106;51.332;12.336;2022-08-19T09:46:19;21.40;99.90
19888;DHT22;10106;51.332;12.336;2022-08-19T09:48:46;21.50;99.90
19888;DHT22;10106;51.332;12.336;2022-08-19T09:51:18;21.60;99.90
19888;DHT22;10106;51.332;12.336;2022-08-19T09:53:45;21.80;99.90
19888;DHT22;10106;51.332;12.336;2022-08-19T09:56:12;21.70;99.90
19888;DHT22;10106;51.332;12.336;2022-08-19T09:58:39;21.70;99.90
19888;DHT22;10106;51.332;12.336;2022-08-19T10:01:06;21.60;99.90
19888;DHT22;10106;51.332;12.336;2022-08-19T10:03:33;21.50;99.90
19888;DHT22;10106;51.332;12.336;2022-08-19T10:06:02;21.50;99.90
19888;DHT22;10106;51.332;12.336;2022-08-19T10:08:34;21.60;99.90
19888;DHT22;10106;51.332;12.336;2022-08-19T10:11:01;21.70;99.90
19888;DHT22;10106;51.332;12.336;2022-08-19T10:13:30;21.90;99.90
19888;DHT22;10106;51.332;12.336;2022-08-19T10:16:09;22.00;99.90
19888;DHT22;10106;51.332;12.336;2022-08-19T10:18:36;22.40;99.90
19888;DHT22;10106;51.332;12.336;2022-08-19T10:23:42;23.10;99.90
19888;DHT22;10106;51.332;12.336;2022-08-19T10:26:15;23.20;99.90
19888;DHT22;10106;51.332;12.336;2022-08-19T10:28:42;23.20;99.90
19888;DHT22;10106;51.332;12.336;2022-08-19T10:31:13;23.20;99.90
19888;DHT22;10106;51.332;12.336;2022-08-19T10:33:40;23.10;99.90
19888;DHT22;10106;51.332;12.336;2022-08-19T10:36:14;23.10;99.90
19888;DHT22;10106;51.332;12.336;2022-08-19T10:38:44;23.10;99.90
19888;DHT22;10106;51.332;12.336;2022-08-19T10:41:23;23.10;99.90
19888;DHT22;10106;51.332;12.336;2022-08-19T10:44:01;23.20;99.90
19888;DHT22;10106;51.332;12.336;2022-08-19T10:46:36;23.20;99.90
19888;DHT22;10106;51.332;12.336;2022-08-19T10:49:05;23.10;99.90
19888;DHT22;10106;51.332;12.336;2022-08-19T10:51:32;22.70;99.90
19888;DHT22;10106;51.332;12.336;2022-08-19T10:54:16;22.60;99.90
19888;DHT22;10106;51.332;12.336;2022-08-19T10:56:50;22.60;99.90
19888;DHT22;10106;51.332;12.336;2022-08-19T10:59:27;22.40;99.90
19888;DHT22;10106;51.332;12.336;2022-08-19T11:01:59;22.40;99.90
19888;DHT22;10106;51.332;12.336;2022-08-19T11:04:31;22.50;99.90
19888;DHT22;10106;51.332;12.336;2022-08-19T11:07:02;22.60;99.90
19888;DHT22;10106;51.332;12.336;2022-08-19T11:09:28;23.20;99.90
19888;DHT22;10106;51.332;12.336;2022-08-19T11:11:55;23.50;99.90
19888;DHT22;10106;51.332;12.336;2022-08-19T11:14:23;23.70;99.90
19888;DHT22;10106;51.332;12.336;2022-08-19T11:16:58;23.70;99.90
19888;DHT22;10106;51.332;12.336;2022-08-19T11:19:45;23.50;99.90
19888;DHT22;10106;51.332;12.336;2022-08-19T11:22:12;23.30;99.90
19888;DHT22;10106;51.332;12.336;2022-08-19T11:24:39;23.40;99.90
19888;DHT22;10106;51.332;12.336;2022-08-19T11:27:07;23.20;99.90
19888;DHT22;10106;51.332;12.336;2022-08-19T11:29:35;23.20;99.90
19888;DHT22;10106;51.332;12.336;2022-08-19T11:32:09;23.30;99.90
19888;DHT22;10106;51.332;12.336;2022-08-19T11:34:36;23.60;99.90
19888;DHT22;10106;51.332;12.336;2022-08-19T11:37:06;24.00;99.90
19888;DHT22;10106;51.332;12.336;2022-08-19T11:39:37;24.50;99.90
19888;DHT22;10106;51.332;12.336;2022-08-19T11:42:05;24.60;99.90
19888;DHT22;10106;51.332;12.336;2022-08-19T11:44:51;24.50;99.90
19888;DHT22;10106;51.332;12.336;2022-08-19T11:47:17;24.50;99.90
19888;DHT22;10106;51.332;12.336;2022-08-19T11:49:43;24.40;99.90
19888;DHT22;10106;51.332;12.336;2022-08-19T11:52:13;24.50;99.90
19888;DHT22;10106;51.332;12.336;2022-08-19T11:54:48;24.80;99.90
19888;DHT22;10106;51.332;12.336;2022-08-19T11:57:15;24.90;99.90
19888;DHT22;10106;51.332;12.336;2022-08-19T11:59:55;25.00;99.90
19888;DHT22;10106;51.332;12.336;2022-08-19T12:02:21;24.80;99.90
19888;DHT22;10106;51.332;12.336;2022-08-19T12:04:54;24.80;99.90
19888;DHT22;10106;51.332;12.336;2022-08-19T12:07:21;24.80;99.90
19888;DHT22;10106;51.332;12.336;2022-08-19T12:09:47;24.90;99.90
19888;DHT22;10106;51.332;12.336;2022-08-19T12:12:12;25.10;99.90
19888;DHT22;10106;51.332;12.336;2022-08-19T12:14:38;25.10;99.90
19888;DHT22;10106;51.332;12.336;2022-08-19T12:17:04;25.20;99.90
19888;DHT22;10106;51.332;12.336;2022-08-19T12:19:33;25.20;99.90
19888;DHT22;10106;51.332;12.336;2022-08-19T12:22:01;25.30;99.90
19888;DHT22;10106;51.332;12.336;2022-08-19T12:24:30;25.30;99.90
19888;DHT22;10106;51.332;12.336;2022-08-19T12:26:57;25.50;99.90
19888;DHT22;10106;51.332;12.336;2022-08-19T12:29:24;25.50;99.90
19888;DHT22;10106;51.332;12.336;2022-08-19T12:31:55;25.90;99.90
19888;DHT22;10106;51.332;12.336;2022-08-19T12:34:31;26.30;99.90
19888;DHT22;10106;51.332;12.336;2022-08-19T12:36:58;26.40;99.90
19888;DHT22;10106;51.332;12.336;2022-08-19T12:39:24;26.30;99.90
19888;DHT22;10106;51.332;12.336;2022-08-19T12:41:52;26.10;99.90
19888;DHT22;10106;51.332;12.336;2022-08-19T12:44:18;26.10;99.90
19888;DHT22;10106;51.332;12.336;2022-08-19T12:46:43;25.80;99.90
19888;DHT22;10106;51.332;12.336;2022-08-19T12:49:10;25.60;99.90
19888;DHT22;10106;51.332;12.336;2022-08-19T12:51:36;25.80;99.90
19888;DHT22;10106;51.332;12.336;2022-08-19T12:54:01;25.80;99.90
19888;DHT22;10106;51.332;12.336;2022-08-19T12:56:30;26.00;99.90
19888;DHT22;10106;51.332;12.336;2022-08-19T12:58:57;26.10;99.90
19888;DHT22;10106;51.332;12.336;2022-08-19T13:01:25;26.20;99.90
19888;DHT22;10106;51.332;12.336;2022-08-19T13:03:51;26.20;99.90
19888;DHT22;10106;51.332;12.336;2022-08-19T13:06:19;26.60;99.90
19888;DHT22;10106;51.332;12.336;2022-08-19T13:08:48;26.80;99.90
19888;DHT22;10106;51.332;12.336;2022-08-19T13:11:19;26.50;99.90
19888;DHT22;10106;51.332;12.336;2022-08-19T13:13:47;26.40;99.90
19888;DHT22;10106;51.332;12.336;2022-08-19T13:16:13;26.30;99.90
19888;DHT22;10106;51.332;12.336;2022-08-19T13:18:41;26.00;99.90
19888;DHT22;10106;51.332;12.336;2022-08-19T13:21:09;25.90;99.90
19888;DHT22;10106;51.332;12.336;2022-08-19T13:23:37;25.90;99.90
19888;DHT22;10106;51.332;12.336;2022-08-19T13:26:05;25.80;99.90
19888;DHT22;10106;51.332;12.336;2022-08-19T13:28:32;25.60;99.90
19888;DHT22;10106;51.332;12.336;2022-08-19T13:31:18;25.50;99.90
19888;DHT22;10106;51.332;12.336;2022-08-19T13:34:03;25.30;99.90
19888;DHT22;10106;51.332;12.336;2022-08-19T13:36:34;25.20;99.90
19888;DHT22;10106;51.332;12.336;2022-08-19T13:39:09;25.10;99.90
19888;DHT22;10106;51.332;12.336;2022-08-19T13:41:36;24.90;99.90
19888;DHT22;10106;51.332;12.336;2022-08-19T13:44:02;24.70;99.90
19888;DHT22;10106;51.332;12.336;2022-08-19T13:46:28;24.40;99.90
19888;DHT22;10106;51.332;12.336;2022-08-19T13:48:56;24.20;99.90
19888;DHT22;10106;51.332;12.336;2022-08-19T13:51:22;24.00;99.90
19888;DHT22;10106;51.332;12.336;2022-08-19T13:53:48;23.90;99.90
19888;DHT22;10106;51.332;12.336;2022-08-19T13:56:16;23.70;99.90
19888;DHT22;10106;51.332;12.336;2022-08-19T13:58:45;23.60;99.90
19888;DHT22;10106;51.332;12.336;2022-08-19T14:01:11;23.60;99.90
19888;DHT22;10106;51.332;12.336;2022-08-19T14:03:37;23.50;99.90
19888;DHT22;10106;51.332;12.336;2022-08-19T14:06:03;23.50;99.90
19888;DHT22;10106;51.332;12.336;2022-08-19T14:08:29;23.40;99.90
19888;DHT22;10106;51.332;12.336;2022-08-19T14:10:58;23.40;99.90
19888;DHT22;10106;51.332;12.336;2022-08-19T14:13:24;23.30;99.90
19888;DHT22;10106;51.332;12.336;2022-08-19T14:15:50;23.30;99.90
19888;DHT22;10106;51.332;12.336;2022-08-19T14:18:17;23.30;99.90
19888;DHT22;10106;51.332;12.336;2022-08-19T14:20:44;23.40;99.90
19888;DHT22;10106;51.332;12.336;2022-08-19T14:23:09;23.40;99.90
19888;DHT22;10106;51.332;12.336;2022-08-19T14:25:36;23.50;99.90
19888;DHT22;10106;51.332;12.336;2022-08-19T14:28:01;23.60;99.90
19888;DHT22;10106;51.332;12.336;2022-08-19T14:30:35;23.60;99.90
19888;DHT22;10106;51.332;12.336;2022-08-19T14:33:13;23.60;99.90
19888;DHT22;10106;51.332;12.336;2022-08-19T14:35:59;23.50;99.90
19888;DHT22;10106;51.332;12.336;2022-08-19T14:38:28;23.60;99.90
19888;DHT22;10106;51.332;12.336;2022-08-19T14:41:07;23.60;99.90
19888;DHT22;10106;51.332;12.336;2022-08-19T14:43:35;23.60;99.90
19888;DHT22;10106;51.332;12.336;2022-08-19T14:46:04;23.80;99.90
19888;DHT22;10106;51.332;12.336;2022-08-19T14:48:30;23.80;99.90
19888;DHT22;10106;51.332;12.336;2022-08-19T14:50:58;23.80;99.90
19888;DHT22;10106;51.332;12.336;2022-08-19T14:53:24;23.70;99.90
19888;DHT22;10106;51.332;12.336;2022-08-19T14:55:51;23.70;99.90
19888;DHT22;10106;51.332;12.336;2022-08-19T14:58:32;23.70;99.90
19888;DHT22;10106;51.332;12.336;2022-08-19T15:01:00;23.70;99.90
19888;DHT22;10106;51.332;12.336;2022-08-19T15:03:30;23.70;99.90
19888;DHT22;10106;51.332;12.336;2022-08-19T15:06:04;23.90;99.90
19888;DHT22;10106;51.332;12.336;2022-08-19T15:08:31;24.00;99.90
19888;DHT22;10106;51.332;12.336;2022-08-19T15:11:02;24.20;99.90
19888;DHT22;10106;51.332;12.336;2022-08-19T15:13:29;24.20;99.90
19888;DHT22;10106;51.332;12.336;2022-08-19T15:16:01;24.10;99.90
19888;DHT22;10106;51.332;12.336;2022-08-19T15:18:27;24.00;99.90
19888;DHT22;10106;51.332;12.336;2022-08-19T15:20:53;23.80;99.90
19888;DHT22;10106;51.332;12.336;2022-08-19T15:23:20;23.50;99.90
19888;DHT22;10106;51.332;12.336;2022-08-19T15:25:55;23.40;99.90
19888;DHT22;10106;51.332;12.336;2022-08-19T15:28:22;23.30;99.90
19888;DHT22;10106;51.332;12.336;2022-08-19T15:30:53;23.20;99.90
19888;DHT22;10106;51.332;12.336;2022-08-19T15:33:19;23.10;99.90
19888;DHT22;10106;51.332;12.336;2022-08-19T15:35:48;23.00;99.90
19888;DHT22;10106;51.332;12.336;2022-08-19T15:38:18;23.10;99.90
19888;DHT22;10106;51.332;12.336;2022-08-19T15:40:52;23.20;99.90